Time;durP1;ratioP1;P1;durP2;ratioP2;P2;SDS_P1;SDS_P2;PMS_P1;PMS_P2;Temp;Humidity;BMP_temperature;BMP_pressure;BME280_temperature;BME280_humidity;BME280_pressure;Samples;Min_cycle;Max_cycle;Signal;HPM_P1;HPM_P2
2022/09/26 00:01:33;;;;;;;13.40;8.30;;;11.40;99.90;;;;;;4989308;28;20496;-74
2022/09/26 00:04:02;;;;;;;;;;;11.30;99.90;;;;;;4982962;28;20146;-73
2022/09/26 00:06:30;;;;;;;13.27;7.55;;;11.30;99.90;;;;;;4990747;28;20420;-78
2022/09/26 00:08:57;;;;;;;14.00;7.85;;;11.30;99.90;;;;;;4988907;28;20038;-76
2022/09/26 00:11:30;;;;;;;10.77;7.78;;;11.30;99.90;;;;;;4990508;28;20058;-76
2022/09/26 00:14:01;;;;;;;14.23;7.80;;;11.30;99.90;;;;;;4986713;28;20432;-75
2022/09/26 00:16:29;;;;;;;12.05;7.72;;;11.30;99.90;;;;;;4991730;28;20050;-77
2022/09/26 00:18:57;;;;;;;16.27;8.73;;;11.30;99.90;;;;;;4987867;28;20454;-75
2022/09/26 00:21:26;;;;;;;12.02;8.25;;;11.30;99.90;;;;;;4990738;28;20564;-75
2022/09/26 00:23:54;;;;;;;14.48;8.80;;;11.30;99.90;;;;;;5005154;28;20129;-76
2022/09/26 00:26:23;;;;;;;16.33;8.90;;;11.30;99.90;;;;;;4989761;28;20568;-76
2022/09/26 00:28:52;;;;;;;14.48;8.27;;;11.20;99.90;;;;;;4986597;28;20053;-75
2022/09/26 00:31:28;;;;;;;15.02;9.38;;;11.20;99.90;;;;;;4989423;28;20039;-76
2022/09/26 00:33:56;;;;;;;15.27;9.77;;;11.20;99.90;;;;;;4978133;28;20632;-76
2022/09/26 00:36:24;;;;;;;17.02;10.15;;;11.20;99.90;;;;;;4979175;28;20043;-76
2022/09/26 00:39:06;;;;;;;16.92;9.73;;;11.20;99.90;;;;;;4984263;28;20472;-76
2022/09/26 00:41:33;;;;;;;14.02;9.35;;;11.10;99.90;;;;;;4985196;28;20572;-76
2022/09/26 00:44:01;;;;;;;14.88;10.10;;;11.10;99.90;;;;;;4985809;28;20050;-76
2022/09/26 00:46:37;;;;;;;19.77;9.90;;;11.00;99.90;;;;;;4983713;28;20039;-76
2022/09/26 00:49:06;;;;;;;16.42;10.40;;;11.00;99.90;;;;;;4970814;28;20046;-75
2022/09/26 00:51:38;;;;;;;16.25;10.50;;;10.90;99.90;;;;;;5002485;28;20046;-77
2022/09/26 00:54:10;;;;;;;21.65;14.13;;;10.90;99.90;;;;;;4973897;28;20058;-74
2022/09/26 00:56:38;;;;;;;20.35;12.43;;;10.90;99.90;;;;;;5001748;28;20110;-76
2022/09/26 00:59:14;;;;;;;18.75;11.55;;;10.90;99.90;;;;;;4989162;28;20113;-75
2022/09/26 01:01:42;;;;;;;17.33;10.98;;;10.80;99.90;;;;;;4988221;28;20081;-76
2022/09/26 01:04:11;;;;;;;21.75;11.85;;;10.80;99.90;;;;;;4990666;28;20129;-75
2022/09/26 01:06:38;;;;;;;16.10;11.27;;;10.80;99.90;;;;;;4986440;28;20054;-76
2022/09/26 01:09:07;;;;;;;13.98;10.40;;;10.80;99.90;;;;;;5002633;28;20046;-74
2022/09/26 01:11:37;;;;;;;13.85;10.52;;;10.80;99.90;;;;;;4987344;28;20069;-76
2022/09/26 01:14:06;;;;;;;17.05;10.13;;;10.90;99.90;;;;;;4985237;28;20108;-76
2022/09/26 01:16:35;;;;;;;17.05;11.07;;;11.00;99.90;;;;;;4989162;28;20057;-76
2022/09/26 01:19:31;;;;;;;15.98;10.48;;;11.00;99.90;;;;;;4990966;28;20457;-77
2022/09/26 01:22:16;;;;;;;16.55;10.45;;;11.00;99.90;;;;;;5005185;28;20516;-77
2022/09/26 01:24:59;;;;;;;17.38;10.52;;;11.00;99.90;;;;;;4969597;28;20053;-76
2022/09/26 01:28:04;;;;;;;18.75;10.80;;;11.00;99.90;;;;;;4984036;28;20145;-73
2022/09/26 01:30:46;;;;;;;20.88;11.02;;;11.00;99.90;;;;;;4996345;28;20042;-75
2022/09/26 01:33:23;;;;;;;17.30;10.80;;;10.90;99.90;;;;;;4972996;28;20057;-76
2022/09/26 01:35:54;;;;;;;17.17;10.60;;;11.00;99.90;;;;;;4994743;28;20074;-75
2022/09/26 01:38:48;;;;;;;17.48;10.60;;;11.00;99.90;;;;;;4984787;28;20043;-76
2022/09/26 01:41:50;;;;;;;20.60;11.65;;;11.10;99.90;;;;;;4989707;28;20050;-76
2022/09/26 01:44:33;;;;;;;17.00;10.98;;;11.10;99.90;;;;;;4972062;28;20039;-75
2022/09/26 01:47:08;;;;;;;16.77;10.63;;;11.00;99.90;;;;;;4990508;28;20042;-76
2022/09/26 01:50:02;;;;;;;17.40;10.48;;;11.00;99.90;;;;;;4994983;28;20042;-76
2022/09/26 01:52:58;;;;;;;16.13;11.18;;;11.00;99.90;;;;;;4991842;28;20452;-73
2022/09/26 01:55:39;;;;;;;18.90;11.13;;;11.00;99.90;;;;;;5006250;28;20097;-73
2022/09/26 01:58:21;;;;;;;21.45;11.35;;;11.00;99.90;;;;;;4992491;28;20084;-75
2022/09/26 02:00:49;;;;;;;19.35;11.32;;;11.00;99.90;;;;;;4990556;28;20121;-76
2022/09/26 02:03:27;;;;;;;18.23;10.93;;;11.00;99.90;;;;;;4992699;28;20048;-75
2022/09/26 02:06:00;;;;;;;18.33;11.50;;;11.10;99.90;;;;;;4969675;28;20054;-75
2022/09/26 02:08:39;;;;;;;16.88;10.63;;;11.00;99.90;;;;;;5003532;28;20042;-76
2022/09/26 02:11:18;;;;;;;19.17;11.93;;;11.10;99.90;;;;;;4981284;28;20042;-75
2022/09/26 02:13:58;;;;;;;17.63;10.90;;;11.00;99.90;;;;;;4993540;28;20036;-76
2022/09/26 02:16:36;;;;;;;16.05;10.20;;;11.00;99.90;;;;;;4990005;28;20588;-76
2022/09/26 02:19:22;;;;;;;14.70;11.13;;;11.10;99.90;;;;;;4991544;28;20046;-78
2022/09/26 02:21:51;;;;;;;17.60;11.57;;;11.10;99.90;;;;;;4993280;28;20469;-76
2022/09/26 02:24:18;;;;;;;18.58;11.52;;;11.10;99.90;;;;;;4987004;28;20129;-77
2022/09/26 02:26:45;;;;;;;16.55;10.55;;;11.10;99.90;;;;;;4993589;28;20046;-77
2022/09/26 02:29:13;;;;;;;18.58;11.15;;;11.00;99.90;;;;;;4990685;28;20057;-77
2022/09/26 02:32:11;;;;;;;17.50;11.90;;;11.00;99.90;;;;;;4988371;28;20077;-77
2022/09/26 02:34:41;;;;;;;30.02;11.65;;;11.00;99.90;;;;;;5002374;28;20050;-75
2022/09/26 02:37:09;;;;;;;20.75;11.63;;;11.00;99.90;;;;;;4978267;28;20038;-76
2022/09/26 02:39:39;;;;;;;16.35;10.77;;;11.00;99.90;;;;;;4989278;28;20050;-75
2022/09/26 02:42:20;;;;;;;21.10;11.35;;;11.00;99.90;;;;;;5006355;28;20516;-75
2022/09/26 02:45:26;;;;;;;17.25;11.23;;;11.00;99.90;;;;;;4982932;28;20145;-75
2022/09/26 02:48:07;;;;;;;25.90;11.32;;;11.00;99.90;;;;;;4974828;28;20153;-75
2022/09/26 02:50:52;;;;;;;15.60;10.50;;;11.00;99.90;;;;;;4991377;28;20530;-76
2022/09/26 02:53:38;;;;;;;19.05;11.20;;;11.00;99.90;;;;;;4989349;28;20031;-76
2022/09/26 02:56:31;;;;;;;16.95;11.45;;;10.90;99.90;;;;;;4990948;28;20046;-74
2022/09/26 02:59:01;;;;;;;17.77;10.70;;;10.90;99.90;;;;;;4989901;28;20090;-77
2022/09/26 03:02:00;;;;;;;13.30;9.50;;;11.00;99.90;;;;;;4988393;28;20588;-76
2022/09/26 03:04:52;;;;;;;15.30;10.25;;;10.90;99.90;;;;;;4968801;28;20077;-77
2022/09/26 03:07:31;;;;;;;16.67;10.55;;;10.90;99.90;;;;;;5004675;28;20101;-76
2022/09/26 03:10:02;;;;;;;18.13;9.80;;;10.90;99.90;;;;;;4967346;28;20113;-76
2022/09/26 03:12:31;;;;;;;22.35;11.07;;;10.90;99.90;;;;;;5006059;28;20042;-76
2022/09/26 03:15:02;;;;;;;19.63;10.77;;;11.00;99.90;;;;;;4997699;28;20038;-76
2022/09/26 03:17:33;;;;;;;15.10;10.47;;;10.90;99.90;;;;;;4973440;28;20046;-76
2022/09/26 03:20:13;;;;;;;16.92;10.32;;;10.90;99.90;;;;;;4990442;28;20092;-75
2022/09/26 03:22:43;;;;;;;19.27;10.85;;;10.90;99.90;;;;;;4986523;28;20381;-76
2022/09/26 03:25:15;;;;;;;18.83;10.63;;;10.90;99.90;;;;;;4989054;28;20061;-74
2022/09/26 03:27:51;;;;;;;14.70;10.27;;;10.80;99.90;;;;;;4983040;28;20042;-70
2022/09/26 03:30:20;;;;;;;16.90;10.50;;;10.90;99.90;;;;;;4996202;28;20050;-75
2022/09/26 03:33:05;;;;;;;18.30;10.13;;;10.80;99.90;;;;;;4977085;28;20050;-77
2022/09/26 03:35:32;;;;;;;18.10;10.63;;;10.80;99.90;;;;;;4989838;28;20042;-77
2022/09/26 03:38:00;;;;;;;17.25;10.18;;;10.80;99.90;;;;;;4973737;28;20092;-75
2022/09/26 03:40:30;;;;;;;15.57;10.00;;;10.90;99.90;;;;;;4985983;28;20070;-75
2022/09/26 03:43:17;;;;;;;16.27;9.88;;;10.90;99.90;;;;;;4983351;28;20122;-74
2022/09/26 03:45:46;;;;;;;21.10;10.85;;;10.80;99.90;;;;;;4993093;28;20039;-77
2022/09/26 03:48:19;;;;;;;14.30;9.82;;;10.80;99.90;;;;;;4989101;28;20439;-76
2022/09/26 03:50:46;;;;;;;22.23;10.82;;;10.80;99.90;;;;;;4990468;28;20094;-77
2022/09/26 03:53:14;;;;;;;15.45;10.43;;;10.80;99.90;;;;;;4990628;28;20121;-75
2022/09/26 03:55:41;;;;;;;19.90;9.80;;;10.80;99.90;;;;;;4990199;28;20062;-75
2022/09/26 03:58:09;;;;;;;18.98;10.30;;;10.80;99.90;;;;;;4974778;28;20077;-76
2022/09/26 04:00:38;;;;;;;19.77;10.80;;;10.80;99.90;;;;;;4978438;28;20563;-70
2022/09/26 04:03:06;;;;;;;18.05;10.82;;;10.80;99.90;;;;;;4975463;28;20080;-77
2022/09/26 04:05:38;;;;;;;16.48;10.88;;;10.80;99.90;;;;;;4985533;28;20039;-75
2022/09/26 04:08:06;;;;;;;15.95;10.27;;;10.70;99.90;;;;;;4985126;28;20041;-75
2022/09/26 04:10:34;;;;;;;21.00;12.05;;;10.70;99.90;;;;;;4988496;28;20084;-75
2022/09/26 04:13:04;;;;;;;18.42;10.40;;;10.80;99.90;;;;;;4988616;28;20470;-76
2022/09/26 04:15:31;;;;;;;19.10;10.20;;;10.80;99.90;;;;;;4989616;28;20038;-75
2022/09/26 04:18:11;;;;;;;18.42;10.30;;;10.70;99.90;;;;;;4990167;28;20126;-74
2022/09/26 04:20:38;;;;;;;17.98;10.25;;;10.70;99.90;;;;;;4964348;28;20097;-76
2022/09/26 04:23:06;;;;;;;20.45;11.45;;;10.70;99.90;;;;;;5005424;28;20046;-76
2022/09/26 04:25:36;;;;;;;15.75;9.93;;;10.70;99.90;;;;;;4963675;28;20042;-77
2022/09/26 04:28:05;;;;;;;19.40;10.20;;;10.70;99.90;;;;;;4986067;28;20105;-77
2022/09/26 04:30:32;;;;;;;16.40;11.10;;;10.70;99.90;;;;;;4984746;28;20105;-75
2022/09/26 04:33:00;;;;;;;18.80;10.35;;;10.60;99.90;;;;;;4972852;28;20504;-74
2022/09/26 04:35:43;;;;;;;;;;;10.70;99.90;;;;;;5007682;28;20583;-76
2022/09/26 04:38:10;;;;;;;17.55;10.75;;;10.60;99.90;;;;;;4956539;28;19922;-73
2022/09/26 04:40:38;;;;;;;16.23;9.73;;;10.60;99.90;;;;;;4986569;28;20390;-74
2022/09/26 04:43:09;;;;;;;17.83;10.60;;;10.60;99.90;;;;;;4986281;28;20070;-74
2022/09/26 04:45:42;;;;;;;18.80;10.13;;;10.50;99.90;;;;;;4986012;28;20464;-76
2022/09/26 04:48:10;;;;;;;18.38;9.43;;;10.50;99.90;;;;;;4989235;28;20038;-76
2022/09/26 04:51:12;;;;;;;16.65;10.23;;;10.50;99.90;;;;;;4966465;28;20046;-75
2022/09/26 04:53:40;;;;;;;15.00;9.40;;;10.50;99.90;;;;;;4987743;28;20039;-77
2022/09/26 04:56:22;;;;;;;15.93;8.93;;;10.50;99.90;;;;;;4985192;28;20078;-74
2022/09/26 04:58:49;;;;;;;15.95;8.63;;;10.60;99.90;;;;;;4973544;28;20053;-76
2022/09/26 05:01:19;;;;;;;18.85;9.57;;;10.60;99.90;;;;;;4989983;28;20054;-76
2022/09/26 05:03:58;;;;;;;15.48;7.65;;;10.60;99.90;;;;;;4992390;28;20077;-77
2022/09/26 05:06:27;;;;;;;15.13;9.05;;;10.50;99.90;;;;;;4989893;28;20074;-78
2022/09/26 05:08:55;;;;;;;14.88;9.07;;;10.60;99.90;;;;;;4989363;28;20129;-76
2022/09/26 05:11:35;;;;;;;13.35;8.27;;;10.60;99.90;;;;;;5006800;28;20485;-76
2022/09/26 05:14:03;;;;;;;15.80;9.15;;;10.60;99.90;;;;;;4990715;28;20045;-74
2022/09/26 05:16:30;;;;;;;16.38;8.68;;;10.50;99.90;;;;;;4989964;28;20566;-76
2022/09/26 05:19:00;;;;;;;23.02;8.85;;;10.50;99.90;;;;;;5004099;28;20042;-75
2022/09/26 05:21:27;;;;;;;15.30;8.70;;;10.50;99.90;;;;;;5007891;28;20046;-76
2022/09/26 05:26:44;;;;;;;17.27;8.75;;;10.50;99.90;;;;;;5012318;28;20034;-74
2022/09/26 05:29:12;;;;;;;16.10;10.03;;;10.50;99.90;;;;;;4993972;28;20042;-76
2022/09/26 05:31:46;;;;;;;16.85;8.90;;;10.40;99.90;;;;;;4994275;28;20050;-76
2022/09/26 05:34:14;;;;;;;18.88;11.07;;;10.30;99.90;;;;;;5010869;28;20531;-76
2022/09/26 05:36:46;;;;;;;17.67;10.32;;;10.30;99.90;;;;;;4993854;28;20050;-74
2022/09/26 05:42:07;;;;;;;19.80;10.00;;;10.40;99.90;;;;;;5009219;28;20501;-76
2022/09/26 05:44:35;;;;;;;21.65;11.35;;;10.30;99.90;;;;;;4993551;28;20113;-76
2022/09/26 05:47:03;;;;;;;23.80;11.20;;;10.20;99.90;;;;;;4972653;28;20042;-76
2022/09/26 05:49:32;;;;;;;16.50;10.52;;;10.20;99.90;;;;;;4989968;28;20136;-76
2022/09/26 05:52:02;;;;;;;19.45;9.93;;;10.30;99.90;;;;;;5011006;28;20047;-77
2022/09/26 05:54:29;;;;;;;20.98;10.75;;;10.30;99.90;;;;;;5007589;28;20042;-76
2022/09/26 05:56:58;;;;;;;17.75;10.68;;;10.40;99.90;;;;;;4995667;28;20412;-77
2022/09/26 05:59:38;;;;;;;20.80;11.05;;;10.30;99.90;;;;;;4992748;28;20074;-75
2022/09/26 06:02:29;;;;;;;18.20;12.00;;;10.40;99.90;;;;;;4984240;28;20077;-76
2022/09/26 06:05:24;;;;;;;20.55;10.88;;;10.40;99.90;;;;;;4991213;28;20042;-75
2022/09/26 06:08:08;;;;;;;20.10;11.82;;;10.50;99.90;;;;;;4994500;28;20046;-77
2022/09/26 06:10:39;;;;;;;20.25;11.45;;;10.50;99.90;;;;;;5008839;28;20125;-75
2022/09/26 06:13:06;;;;;;;21.40;12.55;;;10.40;99.90;;;;;;4993176;28;20077;-76
2022/09/26 06:15:43;;;;;;;19.50;12.43;;;10.50;99.90;;;;;;5007218;28;20066;-77
2022/09/26 06:18:10;;;;;;;17.67;11.65;;;10.50;99.90;;;;;;5006104;28;20382;-75
2022/09/26 06:20:38;;;;;;;17.10;11.00;;;10.60;99.90;;;;;;4987992;28;20050;-76
2022/09/26 06:23:05;;;;;;;21.90;12.98;;;10.80;99.90;;;;;;4980082;28;20082;-74
2022/09/26 06:25:34;;;;;;;19.83;12.43;;;10.70;99.90;;;;;;4992560;28;20039;-74
2022/09/26 06:28:03;;;;;;;21.02;13.13;;;10.60;99.90;;;;;;4989394;28;20137;-73
2022/09/26 06:30:30;;;;;;;20.20;12.55;;;10.60;99.90;;;;;;4961515;28;20043;-76
2022/09/26 06:33:21;;;;;;;19.38;12.98;;;10.60;99.90;;;;;;4935195;29;20391;-74
2022/09/26 06:36:02;;;;;;;23.13;13.80;;;10.60;99.90;;;;;;4911465;29;20047;-77
2022/09/26 06:38:36;;;;;;;21.75;13.25;;;10.50;99.90;;;;;;4950693;29;20053;-77
2022/09/26 06:41:07;;;;;;;28.00;13.98;;;10.60;99.90;;;;;;4937416;29;20482;-74
2022/09/26 06:43:34;;;;;;;26.65;14.40;;;10.60;99.90;;;;;;4936837;29;20132;-75
2022/09/26 06:46:10;;;;;;;22.95;14.07;;;10.60;99.90;;;;;;4943467;29;20051;-75
2022/09/26 06:49:07;;;;;;;21.50;13.27;;;10.60;99.90;;;;;;4924338;29;20693;-76
2022/09/26 06:52:07;;;;;;;22.35;13.82;;;10.80;99.90;;;;;;4925741;29;20055;-76
2022/09/26 06:54:34;;;;;;;33.40;13.98;;;10.70;99.90;;;;;;4931709;29;20525;-76
2022/09/26 06:57:02;;;;;;;22.95;13.55;;;10.80;99.90;;;;;;4921157;29;20055;-77
2022/09/26 06:59:31;;;;;;;18.23;13.10;;;10.90;99.90;;;;;;4933602;29;20126;-75
2022/09/26 07:02:25;;;;;;;21.65;13.50;;;10.90;99.90;;;;;;4930067;29;20549;-73
2022/09/26 07:05:04;;;;;;;30.48;16.15;;;10.90;99.90;;;;;;4931575;29;20739;-74
2022/09/26 07:07:45;;;;;;;22.35;14.00;;;10.90;99.90;;;;;;4930103;29;20051;-72
2022/09/26 07:10:23;;;;;;;25.83;13.82;;;11.00;99.90;;;;;;4958605;28;20694;-75
2022/09/26 07:13:02;;;;;;;24.88;14.90;;;11.10;99.90;;;;;;4991580;28;20069;-76
2022/09/26 07:15:31;;;;;;;28.40;15.50;;;11.20;99.90;;;;;;4993048;28;20046;-74
2022/09/26 07:18:05;;;;;;;23.80;13.80;;;11.10;99.90;;;;;;4986773;28;20061;-77
2022/09/26 07:21:02;;;;;;;23.02;14.02;;;11.20;99.90;;;;;;4973712;28;20481;-73
2022/09/26 07:23:59;;;;;;;24.30;15.05;;;11.30;99.90;;;;;;4907751;29;20151;-76
2022/09/26 07:26:27;;;;;;;23.25;16.05;;;11.30;99.90;;;;;;4894940;29;20052;-74
2022/09/26 07:28:55;;;;;;;21.98;15.63;;;11.30;99.90;;;;;;4896383;29;20091;-75
2022/09/26 07:31:25;;;;;;;21.30;15.68;;;11.40;99.90;;;;;;4909388;29;20040;-75
2022/09/26 07:34:06;;;;;;;22.63;15.43;;;11.40;99.90;;;;;;4912691;29;20133;-75
2022/09/26 07:36:36;;;;;;;24.70;15.18;;;11.40;99.90;;;;;;4909222;29;20056;-73
2022/09/26 07:39:03;;;;;;;23.58;14.82;;;11.40;99.90;;;;;;4895020;29;20064;-73
2022/09/26 07:41:30;;;;;;;23.70;14.85;;;11.50;99.90;;;;;;4894557;29;20514;-72
2022/09/26 07:43:58;;;;;;;22.00;14.73;;;11.50;99.90;;;;;;4895903;29;20056;-74
2022/09/26 07:52:36;;;;;;;19.67;13.43;;;11.60;99.90;;;;;;4910067;29;20040;-76
2022/09/26 07:55:23;;;;;;;24.92;14.68;;;11.70;99.90;;;;;;4911262;29;20811;-72
2022/09/26 07:58:03;;;;;;;22.13;14.32;;;11.80;99.90;;;;;;4894928;29;20578;-76
2022/09/26 08:00:49;;;;;;;21.40;13.57;;;12.00;99.90;;;;;;4937140;28;20059;-75
2022/09/26 08:03:47;;;;;;;25.33;14.75;;;11.90;99.90;;;;;;4990237;28;20473;-75
2022/09/26 08:06:26;;;;;;;20.17;14.32;;;12.00;99.90;;;;;;4980148;28;20492;-77
2022/09/26 08:08:57;;;;;;;23.77;14.15;;;12.10;99.90;;;;;;4958534;28;20050;-76
2022/09/26 08:11:45;;;;;;;18.92;13.38;;;12.20;99.90;;;;;;4952195;28;20048;-76
2022/09/26 08:14:30;;;;;;;20.80;13.63;;;12.30;99.90;;;;;;4973011;28;20046;-74
2022/09/26 08:17:11;;;;;;;17.33;11.88;;;12.40;99.90;;;;;;4989491;28;20053;-74
2022/09/26 08:19:40;;;;;;;17.00;11.48;;;12.50;99.90;;;;;;4970947;28;20046;-72
2022/09/26 08:22:09;;;;;;;19.75;10.52;;;12.50;99.90;;;;;;4968949;28;20054;-75
2022/09/26 08:34:25;;;;;;;16.73;10.55;;;13.10;99.90;;;;;;5495963;23;20117;-76
2022/09/26 08:37:16;;;;;;;14.90;10.00;;;13.00;99.90;;;;;;4966551;28;20050;-74
2022/09/26 08:40:03;;;;;;;12.38;8.63;;;13.30;99.90;;;;;;4973489;28;20055;-75
2022/09/26 08:43:03;;;;;;;14.07;9.10;;;13.30;99.90;;;;;;4971714;28;20112;-75
2022/09/26 08:48:53;;;;;;;15.15;8.05;;;13.50;99.90;;;;;;4970521;28;20042;-75
2022/09/26 08:51:39;;;;;;;12.65;7.45;;;13.70;99.90;;;;;;4963536;28;20568;-74
2022/09/26 08:54:15;;;;;;;10.27;6.55;;;13.80;99.90;;;;;;4958989;28;20424;-73
2022/09/26 08:57:14;;;;;;;11.32;6.13;;;13.90;99.90;;;;;;4969250;28;20067;-75
2022/09/26 08:59:44;;;;;;;6.97;4.90;;;14.00;99.90;;;;;;4960636;28;20109;-74
2022/09/26 09:02:19;;;;;;;9.68;5.57;;;14.20;99.90;;;;;;4958883;28;20039;-76
2022/09/26 09:05:04;;;;;;;7.97;4.88;;;14.50;99.90;;;;;;4985952;28;20091;-76
2022/09/26 09:07:37;;;;;;;11.43;4.68;;;14.60;99.90;;;;;;4960102;28;20043;-76
2022/09/26 09:10:09;;;;;;;6.45;4.65;;;14.80;99.90;;;;;;4969714;28;20094;-75
2022/09/26 09:13:04;;;;;;;9.77;4.00;;;14.80;99.90;;;;;;4970648;28;20564;-74
2022/09/26 09:16:07;;;;;;;6.15;4.50;;;14.90;99.90;;;;;;4969321;28;20062;-75
2022/09/26 09:19:33;;;;;;;6.45;4.07;;;14.90;99.90;;;;;;4961510;28;20141;-74
2022/09/26 09:22:37;;;;;;;7.38;4.53;;;14.80;99.90;;;;;;4965632;28;20252;-74
2022/09/26 09:25:30;;;;;;;7.18;4.75;;;14.80;99.90;;;;;;4969417;28;20146;-73
2022/09/26 09:28:11;;;;;;;8.13;5.30;;;14.90;99.90;;;;;;4948680;28;20110;-77
2022/09/26 09:30:42;;;;;;;7.18;5.00;;;15.10;99.90;;;;;;4938040;29;20402;-76
2022/09/26 09:33:20;;;;;;;9.88;5.53;;;15.00;99.90;;;;;;4948743;28;20050;-75
2022/09/26 09:36:13;;;;;;;10.35;5.22;;;15.00;99.90;;;;;;4956669;28;20082;-70
2022/09/26 09:38:46;;;;;;;8.27;5.40;;;14.90;99.90;;;;;;4963096;28;20047;-74
2022/09/26 09:41:38;;;;;;;10.10;5.07;;;14.90;99.90;;;;;;4959826;28;20153;-75
2022/09/26 09:44:27;;;;;;;9.27;4.55;;;15.10;99.90;;;;;;4938031;29;20491;-75
2022/09/26 09:46:54;;;;;;;7.88;4.50;;;15.00;99.90;;;;;;4950724;28;20296;-75
2022/09/26 09:49:23;;;;;;;7.88;4.85;;;15.20;99.90;;;;;;4949830;29;20514;-74
2022/09/26 09:52:22;;;;;;;8.02;5.47;;;15.10;99.90;;;;;;4948983;29;20054;-75
2022/09/26 09:55:15;;;;;;;7.70;5.13;;;15.10;99.90;;;;;;4926370;29;20094;-74
2022/09/26 09:57:59;;;;;;;6.78;4.65;;;15.10;99.90;;;;;;4940530;29;20138;-76
2022/09/26 10:00:28;;;;;;;10.70;5.28;;;15.20;99.90;;;;;;4946890;28;20388;-73
2022/09/26 10:03:36;;;;;;;8.30;5.60;;;15.40;99.90;;;;;;4952272;28;20090;-75
2022/09/26 10:06:05;;;;;;;8.75;5.38;;;15.60;99.90;;;;;;4933973;28;20044;-76
2022/09/26 10:08:52;;;;;;;7.35;4.57;;;15.60;99.90;;;;;;4961035;28;20488;-76
2022/09/26 10:11:40;;;;;;;9.95;4.97;;;15.90;99.90;;;;;;4953613;28;20182;-76
2022/09/26 10:14:54;;;;;;;6.78;5.22;;;16.00;99.90;;;;;;4933412;29;20093;-72
2022/09/26 10:17:43;;;;;;;8.52;5.28;;;15.70;99.90;;;;;;4924948;29;20058;-75
2022/09/26 10:20:52;;;;;;;8.27;5.30;;;15.70;99.90;;;;;;4932321;29;20091;-75
2022/09/26 10:23:46;;;;;;;9.95;5.20;;;16.10;99.90;;;;;;4933301;29;20083;-74
2022/09/26 10:26:35;;;;;;;6.97;4.53;;;16.00;99.90;;;;;;4915325;29;20059;-72
2022/09/26 10:29:20;;;;;;;13.20;4.97;;;15.80;99.90;;;;;;4919076;29;20130;-76
2022/09/26 10:31:55;;;;;;;5.75;4.28;;;16.00;99.90;;;;;;4923043;29;20114;-76
2022/09/26 10:34:33;;;;;;;8.23;4.72;;;16.20;99.90;;;;;;4899692;29;20054;-76
2022/09/26 10:37:21;;;;;;;7.40;4.82;;;16.50;99.90;;;;;;4901994;29;20079;-74
2022/09/26 10:42:41;;;;;;;6.10;4.43;;;16.20;99.90;;;;;;4916270;29;20051;-74
2022/09/26 10:45:16;;;;;;;8.10;4.35;;;16.30;99.90;;;;;;4924800;29;20055;-73
2022/09/26 10:48:05;;;;;;;9.45;4.32;;;16.20;99.90;;;;;;4951274;28;20871;-75
2022/09/26 10:51:17;;;;;;;9.82;4.70;;;16.00;99.90;;;;;;4944951;29;20645;-73
2022/09/26 10:54:02;;;;;;;7.50;4.30;;;15.90;99.90;;;;;;4953533;29;20532;-74
2022/09/26 10:56:36;;;;;;;11.20;4.53;;;16.20;99.90;;;;;;4953595;29;20058;-76
2022/09/26 10:59:07;;;;;;;9.18;5.22;;;16.20;99.90;;;;;;4954283;28;20047;-76
2022/09/26 11:01:41;;;;;;;6.28;4.45;;;16.20;99.90;;;;;;4962992;28;20062;-74
2022/09/26 11:07:48;;;;;;;9.05;4.60;;;16.70;99.90;;;;;;4961037;28;20043;-75
2022/09/26 11:10:40;;;;;;;8.18;4.68;;;17.20;99.90;;;;;;4953105;28;20080;-76
2022/09/26 11:13:22;;;;;;;6.65;4.72;;;17.50;99.90;;;;;;4951863;29;20050;-74
2022/09/26 11:16:14;;;;;;;8.27;4.50;;;17.60;99.90;;;;;;4951739;28;20047;-75
2022/09/26 11:19:00;;;;;;;8.07;4.40;;;17.50;99.90;;;;;;4937093;29;20047;-76
2022/09/26 11:21:37;;;;;;;9.30;4.60;;;16.80;99.90;;;;;;4956078;28;20536;-75
2022/09/26 11:24:10;;;;;;;9.93;4.90;;;16.60;99.90;;;;;;4969426;28;20058;-76
2022/09/26 11:26:47;;;;;;;9.40;4.85;;;16.50;99.90;;;;;;4951091;29;20043;-72
2022/09/26 11:29:22;;;;;;;7.03;4.68;;;16.60;99.90;;;;;;4949211;29;20048;-74
2022/09/26 11:32:01;;;;;;;10.23;4.75;;;16.80;99.90;;;;;;4935453;29;20094;-74
2022/09/26 11:35:01;;;;;;;8.00;4.30;;;17.10;99.90;;;;;;4965375;28;20066;-76
2022/09/26 11:38:04;;;;;;;5.80;4.82;;;17.30;99.90;;;;;;4952802;28;20085;-77
2022/09/26 11:40:53;;;;;;;8.63;4.93;;;17.40;99.90;;;;;;4933866;29;20047;-77
2022/09/26 11:43:24;;;;;;;9.25;5.35;;;17.00;99.90;;;;;;4953995;28;20086;-77
2022/09/26 11:46:03;;;;;;;9.35;5.53;;;16.90;99.90;;;;;;4959737;28;20157;-76
2022/09/26 11:49:04;;;;;;;14.38;5.40;;;17.10;99.90;;;;;;4952244;28;20051;-74
2022/09/26 11:52:22;;;;;;;7.63;5.35;;;16.90;99.90;;;;;;4951516;29;20074;-77
2022/09/26 11:55:31;;;;;;;6.40;4.53;;;16.90;99.90;;;;;;4951338;29;20043;-74
2022/09/26 11:58:22;;;;;;;9.63;5.70;;;16.80;99.90;;;;;;4889838;29;20169;-73
2022/09/26 12:00:49;;;;;;;7.15;4.50;;;16.40;99.90;;;;;;4893214;29;20052;-77
2022/09/26 12:03:37;;;;;;;7.38;5.10;;;16.60;99.90;;;;;;4893692;29;20053;-76
2022/09/26 12:06:17;;;;;;;6.90;4.80;;;17.10;99.90;;;;;;4884324;29;20064;-74
2022/09/26 12:09:14;;;;;;;9.27;5.03;;;17.60;99.90;;;;;;4881643;29;20045;-75
2022/09/26 12:11:54;;;;;;;8.07;5.15;;;17.70;99.90;;;;;;4876990;29;21019;-76
2022/09/26 12:15:23;;;;;;;8.13;5.10;;;18.00;99.90;;;;;;4878971;29;20048;-76
2022/09/26 12:18:12;;;;;;;8.75;4.70;;;17.40;99.90;;;;;;4877059;29;20045;-74
2022/09/26 12:21:01;;;;;;;8.70;4.90;;;17.30;99.90;;;;;;4873789;29;20052;-74
2022/09/26 12:23:42;;;;;;;6.93;4.55;;;16.80;99.90;;;;;;4876032;29;20084;-74
2022/09/26 12:26:24;;;;;;;7.40;4.57;;;17.00;99.90;;;;;;4874508;29;20061;-74
2022/09/26 12:29:05;;;;;;;5.82;4.50;;;17.20;99.90;;;;;;4914542;28;20058;-75
2022/09/26 12:31:52;;;;;;;6.35;4.72;;;17.80;99.90;;;;;;4927166;29;20446;-76
2022/09/26 12:34:30;;;;;;;7.57;5.13;;;18.90;99.90;;;;;;4939333;29;20130;-73
2022/09/26 12:37:03;;;;;;;10.82;5.10;;;19.40;99.90;;;;;;4949501;29;20071;-73
2022/09/26 12:39:56;;;;;;;6.53;4.90;;;19.50;99.90;;;;;;4917618;29;20055;-75
2022/09/26 12:43:05;;;;;;;6.68;4.45;;;19.60;99.90;;;;;;4964523;28;20038;-75
2022/09/26 12:45:57;;;;;;;6.28;4.70;;;19.50;99.90;;;;;;4939221;29;20050;-74
2022/09/26 12:48:45;;;;;;;6.15;5.13;;;19.50;99.90;;;;;;4956756;29;20051;-77
2022/09/26 12:51:18;;;;;;;6.10;4.82;;;19.30;99.90;;;;;;4940193;29;20478;-76
2022/09/26 12:54:14;;;;;;;5.35;4.63;;;18.70;99.90;;;;;;4958342;28;20062;-74
2022/09/26 12:56:51;;;;;;;12.13;4.68;;;18.80;99.90;;;;;;4940715;29;20533;-73
2022/09/26 12:59:40;;;;;;;7.15;4.80;;;18.90;99.90;;;;;;4926235;29;20051;-76
2022/09/26 13:02:16;;;;;;;10.35;5.07;;;18.70;99.90;;;;;;4933648;29;20066;-74
2022/09/26 13:04:59;;;;;;;9.55;4.93;;;18.80;99.90;;;;;;4920636;29;20111;-75
2022/09/26 13:07:58;;;;;;;6.15;4.60;;;19.20;99.90;;;;;;4931608;29;20044;-74
2022/09/26 13:10:50;;;;;;;6.10;4.45;;;19.00;99.90;;;;;;4944139;29;20054;-74
2022/09/26 13:13:36;;;;;;;5.60;4.15;;;18.50;99.90;;;;;;4944552;29;20799;-74
2022/09/26 13:16:23;;;;;;;6.68;4.93;;;19.70;99.90;;;;;;4917744;29;20048;-73
2022/09/26 13:18:57;;;;;;;7.03;4.43;;;21.80;99.90;;;;;;4901874;29;20147;-75
2022/09/26 13:21:50;;;;;;;6.70;4.50;;;23.40;99.90;;;;;;4921205;29;20056;-74
2022/09/26 13:24:23;;;;;;;5.72;4.60;;;23.00;99.90;;;;;;4934549;29;20070;-76
2022/09/26 13:26:59;;;;;;;6.57;5.30;;;21.70;99.90;;;;;;4934944;29;20522;-75
2022/09/26 13:29:36;;;;;;;5.18;4.68;;;20.30;99.90;;;;;;4932169;29;20048;-74
2022/09/26 13:32:22;;;;;;;6.80;5.50;;;19.60;99.90;;;;;;4932923;29;20542;-74
2022/09/26 13:35:04;;;;;;;5.90;5.22;;;19.00;99.90;;;;;;4950998;29;20044;-76
2022/09/26 13:37:46;;;;;;;5.22;4.50;;;18.70;99.90;;;;;;4951608;28;20127;-72
2022/09/26 13:40:20;;;;;;;5.75;4.65;;;18.60;99.90;;;;;;4953406;29;20522;-76
2022/09/26 13:43:15;;;;;;;5.95;4.95;;;18.10;99.90;;;;;;4957063;28;20077;-76
2022/09/26 13:46:27;;;;;;;6.95;4.47;;;17.60;99.90;;;;;;4959627;29;20051;-75
2022/09/26 13:49:19;;;;;;;5.25;4.75;;;17.10;99.90;;;;;;4960028;28;20474;-76
2022/09/26 13:52:04;;;;;;;6.00;4.60;;;16.80;99.90;;;;;;4958697;29;20045;-75
2022/09/26 13:54:36;;;;;;;6.05;4.40;;;16.70;99.90;;;;;;4958091;29;20652;-76
2022/09/26 13:57:42;;;;;;;9.13;5.03;;;16.60;99.90;;;;;;4939555;29;20130;-73
2022/09/26 14:00:22;;;;;;;7.28;5.13;;;16.60;99.90;;;;;;4972271;28;20125;-76
2022/09/26 14:03:16;;;;;;;9.18;4.80;;;16.60;99.90;;;;;;4934452;29;20514;-74
2022/09/26 14:05:45;;;;;;;7.75;4.80;;;16.50;99.90;;;;;;4949970;28;20055;-75
2022/09/26 14:11:44;;;;;;;6.82;4.85;;;16.30;99.90;;;;;;4960575;28;20504;-75